createdAt,value
2018-10-05T00:02:24.345Z,4.50
2018-10-05T00:04:52.076Z,4.90
2018-10-05T00:07:19.817Z,4.57
2018-10-05T00:09:47.542Z,6.60
2018-10-05T00:12:15.254Z,5.30
2018-10-05T00:14:42.982Z,7.03
2018-10-05T00:17:11.044Z,5.17
2018-10-05T00:19:38.756Z,6.87
2018-10-05T00:22:06.637Z,5.57
2018-10-05T00:24:34.373Z,6.60
2018-10-05T00:27:02.088Z,8.80
2018-10-05T00:29:29.802Z,4.90
2018-10-05T00:31:57.508Z,9.53
2018-10-05T00:34:25.213Z,5.37
2018-10-05T00:36:52.925Z,5.27
2018-10-05T00:39:20.648Z,4.83
2018-10-05T00:41:48.353Z,7.90
2018-10-05T00:44:16.067Z,6.03
2018-10-05T00:46:43.868Z,7.27
2018-10-05T00:49:11.591Z,5.60
2018-10-05T00:51:39.308Z,7.63
2018-10-05T00:54:07.041Z,6.70
2018-10-05T00:56:34.763Z,5.53
2018-10-05T00:59:02.499Z,4.97
2018-10-05T01:01:30.236Z,5.80
2018-10-05T01:03:57.965Z,5.17
2018-10-05T01:06:25.681Z,5.70
2018-10-05T01:08:53.385Z,6.03
2018-10-05T01:11:21.159Z,7.20
2018-10-05T01:13:48.855Z,5.17
2018-10-05T01:16:16.573Z,5.90
2018-10-05T01:18:44.277Z,5.17
2018-10-05T01:21:11.997Z,7.87
2018-10-05T01:23:39.726Z,5.10
2018-10-05T01:26:07.429Z,6.57
2018-10-05T01:28:35.145Z,6.47
2018-10-05T01:31:02.878Z,8.67
2018-10-05T01:33:30.600Z,5.73
2018-10-05T01:35:58.328Z,5.57
2018-10-05T01:38:26.051Z,5.23
2018-10-05T01:40:53.772Z,7.33
2018-10-05T01:43:21.550Z,4.40
2018-10-05T01:45:49.264Z,6.37
2018-10-05T01:48:16.977Z,4.87
2018-10-05T01:50:44.682Z,8.07
2018-10-05T01:53:12.406Z,5.23
2018-10-05T01:55:40.124Z,6.90
2018-10-05T01:58:07.851Z,4.60
2018-10-05T02:00:35.564Z,5.67
2018-10-05T02:03:03.262Z,5.83
2018-10-05T02:05:31.389Z,6.60
2018-10-05T02:07:59.089Z,6.40
2018-10-05T02:10:26.793Z,7.27
2018-10-05T02:12:54.498Z,6.20
2018-10-05T02:15:22.189Z,4.90
2018-10-05T02:17:49.907Z,4.60
2018-10-05T02:20:17.644Z,5.87
2018-10-05T02:22:45.372Z,5.40
2018-10-05T02:25:13.080Z,5.23
2018-10-05T02:27:40.895Z,6.50
2018-10-05T02:30:08.552Z,6.50
2018-10-05T02:32:36.292Z,4.80
2018-10-05T02:35:04.163Z,5.63
2018-10-05T02:37:31.869Z,6.17
2018-10-05T02:39:59.557Z,8.80
2018-10-05T02:42:27.265Z,5.60
2018-10-05T02:44:55.004Z,6.90
2018-10-05T02:47:22.729Z,5.27
2018-10-05T02:49:50.502Z,6.40
2018-10-05T02:52:18.206Z,5.60
2018-10-05T02:54:45.913Z,4.80
2018-10-05T02:57:13.635Z,7.13
2018-10-05T02:59:41.369Z,5.20
2018-10-05T03:02:20.257Z,6.50
2018-10-05T03:04:47.983Z,6.53
2018-10-05T03:07:15.678Z,7.17
2018-10-05T03:09:43.378Z,6.77
2018-10-05T03:12:11.092Z,6.33
2018-10-05T03:14:38.820Z,7.20
2018-10-05T03:17:06.544Z,6.83
2018-10-05T03:19:34.312Z,5.77
2018-10-05T03:22:02.037Z,7.33
2018-10-05T03:24:29.750Z,6.20
2018-10-05T03:26:57.454Z,6.60
2018-10-05T03:29:25.259Z,5.07
2018-10-05T03:31:53.004Z,5.57
2018-10-05T03:34:20.732Z,5.80
2018-10-05T03:36:48.438Z,7.40
2018-10-05T03:39:16.142Z,7.40
2018-10-05T03:41:43.853Z,6.67
2018-10-05T03:44:11.575Z,5.93
2018-10-05T03:46:39.304Z,8.73
2018-10-05T03:49:07.015Z,4.67
2018-10-05T03:51:34.717Z,6.13
2018-10-05T03:54:02.526Z,6.37
2018-10-05T03:56:30.239Z,6.37
2018-10-05T03:58:58.007Z,5.53
2018-10-05T04:01:25.721Z,5.07
2018-10-05T04:03:53.418Z,8.83
2018-10-05T04:06:21.148Z,9.10
2018-10-05T04:08:48.857Z,7.43
2018-10-05T04:11:16.877Z,9.63
2018-10-05T04:13:44.582Z,15.37
2018-10-05T04:16:12.297Z,9.00
2018-10-05T04:18:40.020Z,9.23
2018-10-05T04:21:07.767Z,9.73
2018-10-05T04:23:35.478Z,10.03
2018-10-05T04:26:03.197Z,9.07
2018-10-05T04:28:30.988Z,9.30
2018-10-05T04:30:58.854Z,9.53
2018-10-05T04:33:26.560Z,9.47
2018-10-05T04:35:54.292Z,8.87
2018-10-05T04:38:22.016Z,10.90
2018-10-05T04:40:49.727Z,9.53
2018-10-05T04:43:17.440Z,8.37
2018-10-05T04:45:45.176Z,7.47
2018-10-05T04:48:12.876Z,7.77
2018-10-05T04:50:40.597Z,8.33
2018-10-05T04:53:08.308Z,12.00
2018-10-05T04:55:36.101Z,19.93
2018-10-05T04:58:03.918Z,12.93
2018-10-05T05:00:31.615Z,9.43
2018-10-05T05:02:59.412Z,9.43
2018-10-05T05:05:27.208Z,7.03
2018-10-05T05:07:54.964Z,9.07
2018-10-05T05:10:22.720Z,8.57
2018-10-05T05:12:50.443Z,8.73
2018-10-05T05:15:18.211Z,8.60
2018-10-05T05:17:45.956Z,12.10
2018-10-05T05:20:13.682Z,12.63
2018-10-05T05:22:41.451Z,12.17
2018-10-05T05:25:09.166Z,14.20
2018-10-05T05:27:36.993Z,13.93
2018-10-05T05:30:04.965Z,14.43
2018-10-05T05:32:32.676Z,13.47
2018-10-05T05:35:00.400Z,13.03
2018-10-05T05:37:28.117Z,12.77
2018-10-05T05:39:55.813Z,16.47
2018-10-05T05:42:23.555Z,10.40
2018-10-05T05:44:51.296Z,10.03
2018-10-05T05:47:19.053Z,8.50
2018-10-05T05:49:46.770Z,11.17
2018-10-05T05:52:14.513Z,12.47
2018-10-05T05:54:42.263Z,9.70
2018-10-05T05:57:09.996Z,9.70
2018-10-05T05:59:37.738Z,11.00
2018-10-05T06:02:05.526Z,11.47
2018-10-05T06:04:33.242Z,8.07
2018-10-05T06:07:00.991Z,12.20
2018-10-05T06:09:28.712Z,11.67
2018-10-05T06:11:56.432Z,11.80
2018-10-05T06:14:24.160Z,11.77
2018-10-05T06:16:51.904Z,21.87
2018-10-05T06:19:19.669Z,21.57
2018-10-05T06:21:47.570Z,15.47
2018-10-05T06:24:15.195Z,17.70
2018-10-05T06:26:42.919Z,13.47
2018-10-05T06:29:10.643Z,14.17
2018-10-05T06:31:38.370Z,17.77
2018-10-05T06:34:06.472Z,15.17
2018-10-05T06:36:34.212Z,16.37
2018-10-05T06:39:02.105Z,20.20
2018-10-05T06:41:29.856Z,14.50
2018-10-05T06:43:57.578Z,17.23
2018-10-05T06:46:25.310Z,16.03
2018-10-05T06:48:53.027Z,17.97
2018-10-05T06:51:20.765Z,10.63
2018-10-05T06:53:48.492Z,17.67
2018-10-05T06:56:16.230Z,8.60
2018-10-05T06:58:44.055Z,12.43
2018-10-05T07:01:11.774Z,8.97
2018-10-05T07:03:39.532Z,13.10
2018-10-05T07:06:07.282Z,15.80
2018-10-05T07:08:35.016Z,9.83
2018-10-05T07:11:02.919Z,9.37
2018-10-05T07:13:30.675Z,10.27
2018-10-05T07:15:58.480Z,10.70
2018-10-05T07:18:26.191Z,13.93
2018-10-05T07:20:53.920Z,7.60
2018-10-05T07:23:21.645Z,8.30
2018-10-05T07:25:49.360Z,11.37
2018-10-05T07:28:17.154Z,8.83
2018-10-05T07:30:44.839Z,11.40
2018-10-05T07:33:12.568Z,7.97
2018-10-05T07:35:40.286Z,9.30
2018-10-05T07:38:07.997Z,12.33
2018-10-05T07:40:35.743Z,10.03
2018-10-05T07:43:03.493Z,11.20
2018-10-05T07:45:31.229Z,9.83
2018-10-05T07:47:58.949Z,6.93
2018-10-05T07:50:26.706Z,6.57
2018-10-05T07:52:54.418Z,16.20
2018-10-05T07:55:22.187Z,10.60
2018-10-05T07:57:49.959Z,10.00
2018-10-05T08:00:17.723Z,10.67
2018-10-05T08:02:45.460Z,8.83
2018-10-05T08:05:13.203Z,11.50
2018-10-05T08:07:40.928Z,12.03
2018-10-05T08:10:08.756Z,9.03
2018-10-05T08:12:36.505Z,9.13
2018-10-05T08:15:05.018Z,13.60
2018-10-05T08:17:32.811Z,5.90
2018-10-05T08:20:00.585Z,10.13
2018-10-05T08:22:28.312Z,9.97
2018-10-05T08:24:56.052Z,13.20
2018-10-05T08:27:23.785Z,7.50
2018-10-05T08:29:51.505Z,8.90
2018-10-05T08:32:19.269Z,10.93
2018-10-05T08:34:47.050Z,11.63
2018-10-05T08:37:14.817Z,12.83
2018-10-05T08:39:42.616Z,9.67
2018-10-05T08:42:10.317Z,8.80
2018-10-05T08:44:38.042Z,11.47
2018-10-05T08:47:05.788Z,8.97
2018-10-05T08:49:33.515Z,9.40
2018-10-05T08:52:01.381Z,10.60
2018-10-05T08:54:28.978Z,10.57
2018-10-05T08:56:56.710Z,8.37
2018-10-05T08:59:27.701Z,6.83
2018-10-05T09:01:55.426Z,9.47
2018-10-05T09:04:23.149Z,6.43
2018-10-05T09:06:50.903Z,7.60
2018-10-05T09:09:18.664Z,7.93
2018-10-05T09:11:47.276Z,7.90
2018-10-05T09:14:15.048Z,8.63
2018-10-05T09:16:42.804Z,8.87
2018-10-05T09:19:10.528Z,7.10
2018-10-05T09:21:38.250Z,7.10
2018-10-05T09:24:06.071Z,8.33
2018-10-05T09:26:33.816Z,10.70
2018-10-05T09:29:01.542Z,8.07
2018-10-05T09:31:29.275Z,9.73
2018-10-05T09:33:57.050Z,8.77
2018-10-05T09:36:24.826Z,9.30
2018-10-05T09:38:52.591Z,7.73
2018-10-05T09:41:20.351Z,9.40
2018-10-05T09:43:48.088Z,11.47
2018-10-05T09:46:15.989Z,7.70
2018-10-05T09:48:43.706Z,10.30
2018-10-05T09:51:11.457Z,6.97
2018-10-05T09:53:39.191Z,7.60
2018-10-05T09:56:06.948Z,8.53
2018-10-05T09:58:34.669Z,8.07
2018-10-05T10:01:07.803Z,7.67
2018-10-05T10:03:36.526Z,5.00
2018-10-05T10:06:05.161Z,5.33
2018-10-05T10:08:32.917Z,7.20
2018-10-05T10:11:00.728Z,6.13
2018-10-05T10:13:28.534Z,7.37
2018-10-05T10:15:56.274Z,6.60
2018-10-05T10:18:24.010Z,6.63
2018-10-05T10:20:51.734Z,8.27
2018-10-05T10:23:19.484Z,7.80
2018-10-05T10:25:47.255Z,5.97
2018-10-05T10:28:15.046Z,9.70
2018-10-05T10:30:42.806Z,8.40
2018-10-05T10:33:10.529Z,5.77
2018-10-05T10:35:38.258Z,5.47
2018-10-05T10:38:06.061Z,4.40
2018-10-05T10:40:33.757Z,8.20
2018-10-05T10:43:01.534Z,5.60
2018-10-05T10:45:29.274Z,5.63
2018-10-05T10:47:57.010Z,7.07
2018-10-05T10:50:24.733Z,6.37
2018-10-05T10:52:52.543Z,4.70
2018-10-05T10:55:20.287Z,7.97
2018-10-05T10:57:47.997Z,6.30
2018-10-05T11:00:15.762Z,5.93
2018-10-05T11:02:43.522Z,5.60
2018-10-05T11:05:11.239Z,7.43
2018-10-05T11:07:39.206Z,3.87
2018-10-05T11:10:07.114Z,5.50
2018-10-05T11:12:34.942Z,7.63
2018-10-05T11:15:02.749Z,7.80
2018-10-05T11:17:30.658Z,7.40
2018-10-05T11:19:58.581Z,7.07
2018-10-05T11:22:26.360Z,4.60
2018-10-05T11:24:54.076Z,7.80
2018-10-05T11:27:21.791Z,7.73
2018-10-05T11:29:49.585Z,4.73
2018-10-05T11:32:17.322Z,5.90
2018-10-05T11:34:45.045Z,6.27
2018-10-05T11:37:12.783Z,5.23
2018-10-05T11:39:40.499Z,6.40
2018-10-05T11:42:08.206Z,5.00
2018-10-05T11:44:35.909Z,3.67
2018-10-05T11:47:03.684Z,7.27
2018-10-05T11:49:31.430Z,4.17
2018-10-05T11:51:59.294Z,6.17
2018-10-05T11:54:27.095Z,7.50
2018-10-05T11:56:54.946Z,4.30
2018-10-05T11:59:22.719Z,6.90
2018-10-05T12:01:50.597Z,7.73
2018-10-05T12:04:18.964Z,5.63
2018-10-05T12:06:46.778Z,5.33
2018-10-05T12:09:15.435Z,4.60
2018-10-05T12:11:43.249Z,6.43
2018-10-05T12:14:10.965Z,4.53
2018-10-05T12:16:39.650Z,7.50
2018-10-05T12:19:07.377Z,6.23
2018-10-05T12:21:35.095Z,6.03
2018-10-05T12:24:03.642Z,5.33
2018-10-05T12:26:33.189Z,5.07
2018-10-05T12:29:00.918Z,5.83
2018-10-05T12:31:30.802Z,6.53
2018-10-05T12:33:58.644Z,4.97
2018-10-05T12:36:26.358Z,4.27
2018-10-05T12:38:54.079Z,5.60
2018-10-05T12:41:21.808Z,6.00
2018-10-05T12:43:50.534Z,5.70
2018-10-05T12:46:18.286Z,5.13
2018-10-05T12:48:46.041Z,5.20
2018-10-05T12:51:13.774Z,4.93
2018-10-05T12:53:42.078Z,4.40
2018-10-05T12:56:10.438Z,4.73
2018-10-05T12:58:38.193Z,5.07
2018-10-05T13:01:06.655Z,5.00
2018-10-05T13:03:35.298Z,3.47
2018-10-05T13:06:03.055Z,5.13
2018-10-05T13:08:30.762Z,4.93
2018-10-05T13:10:59.290Z,6.60
2018-10-05T13:13:27.638Z,6.70
2018-10-05T13:15:55.939Z,4.20
2018-10-05T13:18:24.595Z,5.93
2018-10-05T13:20:52.353Z,6.40
2018-10-05T13:23:20.061Z,5.73
2018-10-05T13:25:47.822Z,4.70
2018-10-05T13:28:15.530Z,5.40
2018-10-05T13:30:43.277Z,7.40
2018-10-05T13:33:11.014Z,4.80
2018-10-05T13:35:38.735Z,5.20
2018-10-05T13:38:07.299Z,5.23
2018-10-05T13:40:35.038Z,5.80
2018-10-05T13:43:02.754Z,6.00
2018-10-05T13:45:30.503Z,5.17
2018-10-05T13:47:58.239Z,5.93
2018-10-05T13:50:25.979Z,4.70
2018-10-05T13:52:53.757Z,5.77
2018-10-05T13:55:21.478Z,5.30
2018-10-05T13:57:49.263Z,5.17
2018-10-05T14:00:17.537Z,5.60
2018-10-05T14:02:45.304Z,3.53
2018-10-05T14:05:13.630Z,4.40
2018-10-05T14:07:41.351Z,5.67
2018-10-05T14:10:09.094Z,5.33
2018-10-05T14:12:36.825Z,4.67
2018-10-05T14:15:04.665Z,8.40
2018-10-05T14:17:32.951Z,4.23
2018-10-05T14:20:00.687Z,4.47
2018-10-05T14:22:28.418Z,3.97
2018-10-05T14:24:57.067Z,8.20
2018-10-05T14:27:24.827Z,5.33
2018-10-05T14:29:52.556Z,6.90
2018-10-05T14:32:20.417Z,4.37
2018-10-05T14:34:48.824Z,6.93
2018-10-05T14:37:16.543Z,5.50
2018-10-05T14:39:44.255Z,6.27
2018-10-05T14:42:11.991Z,8.47
2018-10-05T14:44:39.818Z,6.03
2018-10-05T14:47:07.528Z,9.07
2018-10-05T14:49:35.396Z,4.37
2018-10-05T14:52:03.126Z,7.07
2018-10-05T14:54:30.951Z,7.63
2018-10-05T14:56:58.701Z,7.83
2018-10-05T14:59:26.385Z,6.73
2018-10-05T15:01:54.119Z,4.60
2018-10-05T15:04:21.863Z,8.07
2018-10-05T15:06:49.658Z,8.20
2018-10-05T15:09:17.379Z,8.87
2018-10-05T15:11:45.078Z,7.73
2018-10-05T15:14:12.778Z,10.83
2018-10-05T15:16:40.510Z,6.57
2018-10-05T15:19:08.210Z,10.07
2018-10-05T15:21:35.948Z,13.43
2018-10-05T15:24:03.683Z,9.93
2018-10-05T15:26:31.386Z,10.73
2018-10-05T15:28:59.094Z,8.80
2018-10-05T15:31:26.842Z,8.93
2018-10-05T15:33:54.538Z,9.50
2018-10-05T15:36:22.271Z,9.37
2018-10-05T15:38:50.021Z,9.23
2018-10-05T15:41:17.698Z,11.23
2018-10-05T15:43:45.406Z,14.63
2018-10-05T15:46:23.010Z,12.80
2018-10-05T15:48:50.746Z,13.40
2018-10-05T15:51:18.472Z,17.17
2018-10-05T15:53:46.176Z,17.10
2018-10-05T15:56:13.888Z,16.70
2018-10-05T15:58:41.591Z,16.37
2018-10-05T16:01:09.341Z,12.20
2018-10-05T16:03:37.054Z,19.07
2018-10-05T16:06:04.801Z,23.63
2018-10-05T16:08:32.489Z,22.30
2018-10-05T16:11:00.309Z,22.27
2018-10-05T16:13:28.006Z,21.83
2018-10-05T16:15:55.725Z,24.40
2018-10-05T16:18:23.525Z,19.03
2018-10-05T16:20:51.194Z,28.20
2018-10-05T16:23:18.890Z,19.43
2018-10-05T16:25:46.610Z,23.03
2018-10-05T16:28:14.343Z,28.00
2018-10-05T16:30:42.070Z,25.00
2018-10-05T16:33:09.762Z,25.93
2018-10-05T16:35:37.461Z,21.20
2018-10-05T16:38:05.324Z,18.23
2018-10-05T16:40:33.025Z,14.67
2018-10-05T16:43:00.755Z,15.60
2018-10-05T16:45:28.446Z,19.77
2018-10-05T16:47:56.170Z,19.27
2018-10-05T16:50:24.506Z,23.07
2018-10-05T16:52:52.734Z,17.93
2018-10-05T16:55:20.434Z,19.10
2018-10-05T16:57:48.149Z,16.20
2018-10-05T17:00:15.864Z,14.97
2018-10-05T17:02:43.570Z,21.93
2018-10-05T17:05:11.302Z,23.27
2018-10-05T17:07:39.011Z,22.73
2018-10-05T17:10:06.912Z,23.20
2018-10-05T17:12:34.622Z,19.80
2018-10-05T17:15:02.347Z,25.00
2018-10-05T17:17:30.057Z,23.97
2018-10-05T17:19:57.762Z,23.10
2018-10-05T17:22:25.481Z,32.83
2018-10-05T17:24:53.245Z,28.20
2018-10-05T17:27:21.003Z,35.43
2018-10-05T17:29:48.701Z,27.23
2018-10-05T17:32:16.417Z,28.23
2018-10-05T17:34:44.136Z,24.80
2018-10-05T17:37:12.922Z,23.00
2018-10-05T17:39:40.551Z,19.60
2018-10-05T17:42:08.268Z,19.90
2018-10-05T17:44:35.967Z,18.37
2018-10-05T17:47:03.677Z,22.37
2018-10-05T17:49:33.332Z,16.23
2018-10-05T17:52:01.113Z,17.80
2018-10-05T17:54:30.473Z,22.63
2018-10-05T17:56:59.864Z,20.87
2018-10-05T17:59:27.590Z,19.47
2018-10-05T18:01:55.390Z,19.60
2018-10-05T18:04:23.118Z,18.43
2018-10-05T18:06:50.862Z,21.13
2018-10-05T18:09:18.605Z,18.40
2018-10-05T18:11:46.304Z,17.37
2018-10-05T18:14:14.125Z,17.47
2018-10-05T18:16:41.831Z,13.23
2018-10-05T18:19:09.538Z,12.10
2018-10-05T18:21:37.282Z,14.07
2018-10-05T18:24:04.995Z,15.07
2018-10-05T18:26:32.715Z,19.17
2018-10-05T18:29:00.537Z,17.43
2018-10-05T18:31:28.270Z,16.77
2018-10-05T18:33:56.016Z,17.83
2018-10-05T18:36:23.757Z,17.43
2018-10-05T18:38:51.465Z,20.47
2018-10-05T18:41:19.216Z,20.17
2018-10-05T18:43:46.973Z,17.80
2018-10-05T18:46:14.722Z,16.83
2018-10-05T18:48:42.491Z,19.23
2018-10-05T18:51:10.290Z,19.43
2018-10-05T18:53:37.998Z,14.30
2018-10-05T18:56:16.946Z,16.70
2018-10-05T18:58:44.666Z,19.30
2018-10-05T19:01:12.399Z,16.73
2018-10-05T19:03:40.105Z,18.03
2018-10-05T19:06:07.829Z,19.63
2018-10-05T19:08:36.190Z,17.90
2018-10-05T19:11:03.920Z,19.77
2018-10-05T19:13:31.666Z,14.47
2018-10-05T19:15:59.404Z,13.63
2018-10-05T19:18:27.861Z,9.53
2018-10-05T19:20:55.659Z,12.23
2018-10-05T19:23:23.484Z,11.53
2018-10-05T19:25:51.298Z,9.97
2018-10-05T19:28:18.986Z,9.40
2018-10-05T19:30:46.700Z,9.97
2018-10-05T19:33:14.515Z,9.13
2018-10-05T19:35:42.227Z,9.33
2018-10-05T19:38:09.943Z,9.00
2018-10-05T19:40:37.642Z,9.53
2018-10-05T19:43:05.383Z,12.07
2018-10-05T19:45:33.098Z,11.50
2018-10-05T19:48:00.809Z,8.23
2018-10-05T19:50:28.543Z,10.83
2018-10-05T19:52:56.315Z,9.03
2018-10-05T19:55:24.003Z,6.73
2018-10-05T19:57:51.718Z,7.37
2018-10-05T20:00:19.442Z,7.80
2018-10-05T20:02:47.142Z,6.67
2018-10-05T20:05:14.855Z,5.80
2018-10-05T20:07:42.570Z,7.27
2018-10-05T20:10:10.344Z,7.40
2018-10-05T20:12:38.042Z,6.17
2018-10-05T20:15:05.953Z,6.33
2018-10-05T20:17:33.747Z,6.60
2018-10-05T20:20:01.456Z,8.97
2018-10-05T20:22:29.162Z,8.83
2018-10-05T20:24:56.865Z,8.00
2018-10-05T20:27:24.573Z,6.37
2018-10-05T20:29:52.278Z,6.70
2018-10-05T20:32:19.997Z,5.67
2018-10-05T20:34:47.698Z,11.67
2018-10-05T20:37:20.130Z,6.13
2018-10-05T20:39:48.732Z,8.07
2018-10-05T20:42:16.459Z,6.23
2018-10-05T20:44:44.192Z,10.07
2018-10-05T20:47:11.922Z,7.90
2018-10-05T20:49:39.742Z,9.27
2018-10-05T20:52:07.455Z,7.93
2018-10-05T20:54:35.165Z,8.40
2018-10-05T20:57:02.866Z,18.87
2018-10-05T20:59:30.566Z,11.30
2018-10-05T21:01:58.274Z,11.27
2018-10-05T21:04:26.090Z,11.73
2018-10-05T21:06:53.939Z,10.37
2018-10-05T21:09:21.658Z,11.83
2018-10-05T21:11:49.425Z,10.07
2018-10-05T21:14:17.157Z,11.00
2018-10-05T21:16:44.925Z,11.03
2018-10-05T21:19:12.659Z,11.40
2018-10-05T21:21:40.362Z,12.17
2018-10-05T21:24:08.105Z,9.33
2018-10-05T21:26:35.825Z,12.10
2018-10-05T21:29:03.711Z,13.50
2018-10-05T21:31:31.486Z,14.43
2018-10-05T21:33:59.185Z,8.53
2018-10-05T21:36:26.902Z,11.13
2018-10-05T21:38:54.708Z,13.87
2018-10-05T21:41:22.426Z,9.67
2018-10-05T21:43:50.149Z,11.97
2018-10-05T21:46:17.938Z,9.40
2018-10-05T21:48:45.694Z,7.53
2018-10-05T21:51:13.528Z,7.13
2018-10-05T21:53:41.306Z,8.47
2018-10-05T21:56:09.031Z,9.30
2018-10-05T21:58:36.793Z,7.50
2018-10-05T22:01:04.551Z,10.63
2018-10-05T22:03:32.406Z,9.63
2018-10-05T22:06:00.204Z,8.07
2018-10-05T22:08:28.009Z,7.73
2018-10-05T22:10:55.764Z,10.17
2018-10-05T22:13:23.479Z,8.97
2018-10-05T22:15:51.191Z,6.30
2018-10-05T22:18:18.903Z,8.07
2018-10-05T22:20:46.640Z,8.97
2018-10-05T22:23:14.344Z,8.20
2018-10-05T22:25:42.046Z,6.87
2018-10-05T22:28:09.742Z,7.87
2018-10-05T22:30:37.598Z,7.77
2018-10-05T22:33:05.463Z,9.63
2018-10-05T22:35:34.064Z,7.20
2018-10-05T22:38:01.922Z,8.17
2018-10-05T22:40:30.161Z,8.23
2018-10-05T22:42:58.027Z,9.30
2018-10-05T22:45:25.878Z,9.33
2018-10-05T22:47:53.743Z,9.43
2018-10-05T22:50:21.665Z,7.50
2018-10-05T22:52:49.510Z,6.60
2018-10-05T22:55:17.378Z,9.03
2018-10-05T22:57:45.238Z,7.37
2018-10-05T23:00:13.132Z,6.73
2018-10-05T23:02:41.009Z,7.47
2018-10-05T23:05:08.895Z,8.43
2018-10-05T23:07:36.767Z,6.83
2018-10-05T23:10:05.002Z,8.47
2018-10-05T23:12:32.878Z,8.57
2018-10-05T23:15:02.247Z,8.73
2018-10-05T23:17:30.131Z,7.07
2018-10-05T23:19:58.000Z,6.90
2018-10-05T23:22:25.959Z,6.47
2018-10-05T23:24:53.818Z,6.40
2018-10-05T23:27:21.683Z,9.73
2018-10-05T23:29:49.579Z,6.70
2018-10-05T23:32:17.471Z,7.70
2018-10-05T23:34:45.350Z,8.17
2018-10-05T23:37:13.223Z,6.73
2018-10-05T23:39:42.087Z,8.40
2018-10-05T23:42:10.044Z,6.07
2018-10-05T23:44:37.906Z,6.00
2018-10-05T23:47:06.027Z,8.50
2018-10-05T23:49:33.962Z,7.10
2018-10-05T23:52:12.838Z,6.23
2018-10-05T23:54:40.689Z,5.83
2018-10-05T23:57:08.542Z,7.93
2018-10-05T23:59:36.402Z,7.80
